Daily Summary

Last 30 Days

Daily Data | America/Los_Angeles
as of 8/25/19 2:27 AM PDT
Date Daily Max Temp (°F) Daily Min Temp (°F) Daily Rain (In) Seasonal Rainfall (In) Daily Solar Rad (Cal/cm2) Daily ETo (in) Wind Spd (mph) Daily Max Wind (mph) Max Wind Dir (°) Dew Pt (°F) Max RH (%) Min RH (%) Leaf Wet (hrs) Soil Temp (°F) Soil Moist1 (%) Fuel Moisture (%) Max Fuel Moisture (%) Min Fuel Moisture (%) Bat Volt Min Day (V)
8/24/19 82.9 53.8 0.00 0.00 536 0.16 1.2 7.0 SW | 221 53.7 85 39 0.6 71.0 13.6 7 13 0 12.17
8/23/19 77.6 52.6 0.00 0.00 546 0.16 1.1 7.9 SW | 219 55.7 93 51 13.3 70.9 13.7 8 17 0 12.17
8/22/19 87.8 60.6 0.00 0.00 551 0.17 1.0 7.9 WNW | 303 61.0 93 43 9.8 70.9 13.7 7 15 0 12.18
8/21/19 92.1 54.4 0.00 0.00 559 0.17 1.4 11.5 WSW | 258 54.2 88 13 7.4 70.9 13.6 8 18 0 12.15
8/20/19 83.0 52.2 0.00 0.00 570 0.17 1.2 8.0 W | 266 54.0 94 39 11.0 71.1 13.6 8 16 0 12.19
8/19/19 73.4 48.7 0.00 0.00 484 0.14 1.3 8.5 WNW | 288 53.4 94 57 12.7 71.2 13.5 10 19 0 12.07
8/18/19 62.5 53.2 0.00 0.00 204 0.06 0.9 6.4 SSW | 192 53.4 93 77 14.6 71.1 13.6 12 16 8 12.18
8/17/19 70.0 50.6 0.00 0.00 597 0.16 1.4 9.2 SSW | 197 52.3 94 56 9.8 71.0 13.7 7 13 0 12.18
8/16/19 82.9 52.3 0.00 0.00 587 0.18 1.2 6.9 WSW | 247 51.0 93 32 2.8 70.8 13.8 4 10 0 12.13
8/15/19 96.3 68.4 0.00 0.00 588 0.19 1.4 6.8 S | 181 49.9 54 20 0.0 70.6 13.9 3 7 0 12.16
8/14/19 98.8 67.6 0.00 0.00 581 0.18 1.5 7.2 WSW | 256 49.5 50 15 0.0 70.5 13.9 3 7 0 12.20
8/13/19 92.5 61.8 0.00 0.00 588 0.18 1.5 7.1 WSW | 255 46.8 53 16 0.0 70.4 13.9 4 8 0 12.17
8/12/19 92.0 60.4 0.00 0.00 581 0.18 1.3 8.2 WNW | 293 48.5 63 22 0.0 70.4 13.9 5 11 0 12.15
8/11/19 87.3 53.4 0.00 0.00 585 0.18 1.5 9.2 WSW | 238 51.3 86 27 0.4 70.4 13.9 8 18 0 12.17
8/10/19 83.3 54.9 0.00 0.00 497 0.15 1.3 9.3 S | 180 55.5 92 41 9.0 70.4 14.0 8 16 0 12.17
8/9/19 84.5 51.9 0.00 0.00 573 0.17 1.4 9.3 W | 277 52.0 89 35 1.9 70.4 14.0 6 13 0 12.15
8/8/19 82.0 50.4 0.00 0.00 585 0.17 1.3 9.1 SW | 226 49.9 93 34 8.8 70.4 14.0 8 18 0 12.15
8/7/19 82.4 49.0 0.00 0.00 592 0.17 1.0 7.3 W | 275 53.1 94 43 12.6 70.4 14.0 8 16 0 12.17
8/6/19 80.3 51.6 0.00 0.00 558 0.16 0.9 6.8 SW | 223 53.6 92 46 8.4 70.4 14.1 8 17 0 12.17
8/5/19 81.4 55.5 0.00 0.00 509 0.15 1.0 6.0 WSW | 253 56.8 92 48 9.2 70.3 14.2 8 17 0 12.17
8/4/19 89.6 60.2 0.00 0.00 603 0.19 1.3 6.8 W | 267 56.4 86 35 2.9 70.2 14.2 6 13 0 12.18
8/3/19 89.7 59.8 0.00 0.00 600 0.19 1.3 6.5 WNW | 284 52.7 76 29 0.0 70.1 14.2 6 12 0 12.17
8/2/19 87.1 54.3 0.00 0.00 604 0.18 1.2 6.4 WSW | 257 55.2 93 35 9.0 70.1 14.2 8 18 0 12.14
8/1/19 81.1 46.9 0.00 0.00 611 0.18 1.1 7.6 W | 281 53.3 95 45 13.0 70.1 14.2 8 16 0 12.14
7/31/19 74.2 47.6 0.00 0.00 618 0.17 1.1 6.9 NW | 317 51.7 95 51 13.5 70.1 14.2 8 17 0 12.14
7/30/19 78.5 48.3 0.00 0.00 627 0.18 1.1 7.4 WSW | 252 52.7 94 46 13.2 70.0 14.2 8 16 0 12.18
7/29/19 81.5 47.8 0.00 0.00 633 0.18 1.1 6.8 WSW | 255 52.7 94 42 13.0 69.9 14.3 7 14 0 12.18
7/28/19 84.5 50.6 0.00 0.00 618 0.19 1.1 6.9 WSW | 244 52.8 93 38 4.3 69.8 14.4 5 11 0 12.18
7/27/19 93.5 48.7 0.00 0.00 633 0.20 1.0 5.7 WSW | 238 51.3 92 22 4.2 69.6 14.3 7 16 0 12.17
7/26/19 80.0 49.6 0.00 0.00 628 0.19 1.0 6.6 WSW | 249 52.7 94 30 11.8 69.4 14.4 6 13 0 12.18
Max 98.8 68.4 0.00 - 633 0.20 1.5 11.5 - 61.0 95 77 14.6 71.2 14.4 12 19 8 12.20
Avg - - - - - - 1.2 - - 52.9 - - - 70.4 14.0 7 14 0 -
Min 62.5 46.9 0.00 - 204 0.06 0.9 5.7 - 46.8 50 13 0.0 69.4 13.5 3 7 0 12.07